Time;durP1;ratioP1;P1;durP2;ratioP2;P2;SDS_P1;SDS_P2;PMS_P1;PMS_P2;Temp;Humidity;BMP_temperature;BMP_pressure;BME280_temperature;BME280_humidity;BME280_pressure;Samples;Min_cycle;Max_cycle;Signal;HPM_P1;HPM_P2
2023/05/14 00:02:12;;;;;;;3.60;2.70;;;12.10;99.90;;;;;;1916395;74;21129;-83
2023/05/14 00:05:03;;;;;;;3.40;1.82;;;12.10;99.90;;;;;;1919724;74;21147;-83
2023/05/14 00:07:55;;;;;;;2.70;2.50;;;12.10;99.90;;;;;;1915054;74;21137;-83
2023/05/14 00:10:46;;;;;;;4.40;2.40;;;12.10;99.90;;;;;;1883275;75;21122;-83
2023/05/14 00:13:38;;;;;;;2.42;2.20;;;12.10;99.90;;;;;;1900935;75;21172;-83
2023/05/14 00:16:29;;;;;;;3.12;2.52;;;12.20;99.90;;;;;;1903914;74;21099;-83
2023/05/14 00:19:22;;;;;;;2.12;1.87;;;12.20;99.90;;;;;;1887003;75;21159;-84
2023/05/14 00:24:54;;;;;;;3.22;2.45;;;12.30;99.90;;;;;;1932496;72;22194;-83
2023/05/14 00:27:45;;;;;;;2.98;2.58;;;12.30;99.90;;;;;;1902845;75;21131;-85
2023/05/14 00:30:38;;;;;;;8.28;2.12;;;12.30;99.90;;;;;;1897464;75;21159;-83
2023/05/14 00:33:30;;;;;;;3.90;2.08;;;12.30;99.90;;;;;;1894949;75;21132;-83
2023/05/14 00:36:23;;;;;;;2.33;1.92;;;12.20;99.90;;;;;;1891545;75;21102;-83
2023/05/14 00:39:15;;;;;;;3.00;2.10;;;12.10;99.90;;;;;;1904298;75;21098;-83
2023/05/14 00:42:07;;;;;;;1.77;1.60;;;12.10;99.90;;;;;;1899518;75;21107;-83
2023/05/14 00:44:58;;;;;;;1.98;1.70;;;12.10;99.90;;;;;;1894849;75;21054;-83
2023/05/14 00:47:50;;;;;;;5.08;2.00;;;12.00;99.90;;;;;;1894881;75;21117;-83
2023/05/14 00:50:45;;;;;;;3.85;1.65;;;12.00;99.90;;;;;;1916949;75;21160;-84
2023/05/14 00:53:37;;;;;;;1.70;1.50;;;12.00;99.90;;;;;;1901568;75;21128;-83
2023/05/14 00:56:29;;;;;;;2.47;1.75;;;12.00;99.90;;;;;;1896428;75;21095;-84
2023/05/14 00:59:20;;;;;;;2.02;1.42;;;11.90;99.90;;;;;;1895077;75;21087;-84
2023/05/14 01:02:12;;;;;;;2.65;1.40;;;11.90;99.90;;;;;;1894998;75;21179;-83
2023/05/14 01:05:04;;;;;;;2.25;1.35;;;12.00;99.90;;;;;;1917036;75;21080;-84
2023/05/14 01:07:59;;;;;;;3.20;1.60;;;12.00;99.90;;;;;;1903019;75;21205;-83
2023/05/14 01:10:54;;;;;;;1.65;1.12;;;12.00;99.90;;;;;;1906631;75;21549;-84
2023/05/14 01:13:49;;;;;;;2.30;1.30;;;12.00;99.90;;;;;;1911110;75;21153;-84
2023/05/14 01:16:43;;;;;;;1.52;1.20;;;12.10;99.90;;;;;;1895278;75;21121;-84
2023/05/14 01:19:39;;;;;;;1.27;1.10;;;12.10;99.90;;;;;;1899395;75;21106;-84
2023/05/14 01:22:31;;;;;;;1.30;1.00;;;12.10;99.90;;;;;;1911825;75;21201;-83
2023/05/14 01:25:22;;;;;;;2.40;1.10;;;12.20;99.90;;;;;;1902482;74;21115;-84
2023/05/14 01:28:17;;;;;;;3.10;1.60;;;12.20;99.90;;;;;;1904533;74;21128;-84
2023/05/14 01:33:51;;;;;;;2.35;1.70;;;12.20;99.90;;;;;;1955295;72;22326;-84
2023/05/14 01:36:44;;;;;;;4.20;1.70;;;12.20;99.90;;;;;;1895758;74;21565;-84
2023/05/14 01:39:37;;;;;;;4.90;2.20;;;12.10;99.90;;;;;;1895164;75;21131;-83
2023/05/14 01:42:30;;;;;;;5.72;1.85;;;12.10;99.90;;;;;;1896320;75;21066;-84
2023/05/14 01:45:22;;;;;;;2.58;2.00;;;12.00;99.90;;;;;;1899847;75;21102;-85
2023/05/14 01:48:14;;;;;;;5.78;2.05;;;12.00;99.90;;;;;;1894918;75;21083;-84
2023/05/14 01:51:06;;;;;;;2.70;2.15;;;12.00;99.90;;;;;;1894801;75;21162;-83
2023/05/14 01:53:57;;;;;;;4.58;1.90;;;12.00;99.90;;;;;;1895472;75;21201;-84
2023/05/14 01:56:49;;;;;;;3.98;1.80;;;12.00;99.90;;;;;;1899838;75;21526;-84
2023/05/14 01:59:40;;;;;;;2.00;1.70;;;12.00;99.90;;;;;;1884155;75;21059;-83
2023/05/14 02:02:31;;;;;;;3.20;1.60;;;12.00;99.90;;;;;;1891068;75;21103;-84
2023/05/14 02:05:23;;;;;;;1.92;1.72;;;12.00;99.90;;;;;;1894265;75;21103;-84
2023/05/14 02:08:15;;;;;;;2.27;1.80;;;12.10;99.90;;;;;;1916620;75;21128;-84
2023/05/14 02:11:07;;;;;;;6.10;1.50;;;12.00;99.90;;;;;;1897564;75;21118;-84
2023/05/14 02:13:58;;;;;;;2.00;1.70;;;12.00;99.90;;;;;;1894910;75;21107;-84
2023/05/14 02:16:50;;;;;;;1.80;1.27;;;12.00;99.90;;;;;;1894840;75;21058;-84
2023/05/14 02:19:41;;;;;;;1.70;1.32;;;12.00;99.90;;;;;;1916617;75;21156;-84
2023/05/14 02:22:33;;;;;;;1.52;1.30;;;12.10;99.90;;;;;;1883603;75;21092;-84
2023/05/14 02:25:24;;;;;;;1.82;1.20;;;12.00;99.90;;;;;;1905770;75;21518;-84
2023/05/14 02:28:16;;;;;;;2.47;1.27;;;12.10;99.90;;;;;;1910700;75;21103;-85
2023/05/14 02:31:07;;;;;;;3.37;1.32;;;12.10;99.90;;;;;;1895104;75;21093;-83
2023/05/14 02:34:01;;;;;;;2.75;1.45;;;12.10;99.90;;;;;;1907279;74;21121;-83
2023/05/14 02:36:52;;;;;;;2.95;1.27;;;12.10;99.90;;;;;;1914598;74;21105;-83
2023/05/14 02:39:44;;;;;;;2.15;1.47;;;12.10;99.90;;;;;;1915680;74;21059;-83
2023/05/14 02:42:37;;;;;;;1.10;1.00;;;12.10;99.90;;;;;;1917919;74;21142;-85
2023/05/14 02:45:29;;;;;;;2.12;1.10;;;12.10;99.90;;;;;;1906907;74;21174;-84
2023/05/14 02:48:21;;;;;;;1.60;1.20;;;12.00;99.90;;;;;;1906982;74;21091;-86
2023/05/14 02:51:12;;;;;;;2.08;1.20;;;12.00;99.90;;;;;;1895344;74;21221;-83
2023/05/14 02:54:04;;;;;;;2.35;1.27;;;12.00;99.90;;;;;;1896108;74;21097;-83
2023/05/14 02:56:55;;;;;;;1.67;1.27;;;12.00;99.90;;;;;;1906448;74;21058;-83
2023/05/14 02:59:47;;;;;;;1.77;1.00;;;11.90;99.90;;;;;;1907679;74;21409;-83
2023/05/14 03:02:39;;;;;;;3.90;1.17;;;12.00;99.90;;;;;;1926014;74;21164;-83
2023/05/14 03:05:31;;;;;;;1.10;0.98;;;11.90;99.90;;;;;;1899758;74;21113;-86
2023/05/14 03:08:23;;;;;;;1.40;1.30;;;12.00;99.90;;;;;;1913855;74;21118;-84
2023/05/14 03:11:15;;;;;;;1.55;1.22;;;11.90;99.90;;;;;;1910336;74;21094;-83
2023/05/14 03:14:06;;;;;;;1.55;1.20;;;11.90;99.90;;;;;;1915445;74;21590;-83
2023/05/14 03:16:58;;;;;;;1.17;1.07;;;11.80;99.90;;;;;;1915363;74;21567;-84
2023/05/14 03:19:50;;;;;;;1.77;1.62;;;11.90;99.90;;;;;;1892981;74;21197;-83
2023/05/14 03:22:41;;;;;;;2.65;1.72;;;11.90;99.90;;;;;;1909769;74;21148;-84
2023/05/14 03:25:33;;;;;;;2.95;1.77;;;11.90;99.90;;;;;;1914655;74;21106;-84
2023/05/14 03:28:25;;;;;;;2.62;1.77;;;11.90;99.90;;;;;;1915028;74;21103;-84
2023/05/14 03:31:17;;;;;;;2.83;1.60;;;12.00;99.90;;;;;;1894468;74;21101;-84
2023/05/14 03:34:09;;;;;;;2.20;1.42;;;12.00;99.90;;;;;;1900846;74;21118;-84
2023/05/14 03:37:00;;;;;;;2.20;1.72;;;12.10;99.90;;;;;;1884805;75;21113;-83
2023/05/14 03:39:51;;;;;;;1.60;1.50;;;12.10;99.90;;;;;;1882179;75;21114;-85
2023/05/14 03:42:43;;;;;;;2.25;1.80;;;12.20;99.90;;;;;;1882186;75;21196;-85
2023/05/14 03:45:35;;;;;;;2.70;1.45;;;12.10;99.90;;;;;;1885228;75;21112;-84
2023/05/14 03:48:26;;;;;;;2.40;1.57;;;12.10;99.90;;;;;;1871789;77;21557;-84
2023/05/14 03:51:19;;;;;;;1.87;1.50;;;12.20;99.90;;;;;;1905665;75;21243;-83
2023/05/14 03:54:10;;;;;;;3.15;1.67;;;12.20;99.90;;;;;;1905716;75;21168;-84
2023/05/14 03:57:02;;;;;;;3.87;1.75;;;12.10;99.90;;;;;;1904020;75;21181;-83
2023/05/14 03:59:53;;;;;;;3.08;1.90;;;12.10;99.90;;;;;;1900749;75;21168;-83
2023/05/14 04:02:44;;;;;;;2.08;1.67;;;12.10;99.90;;;;;;1893861;75;21518;-83
2023/05/14 04:05:36;;;;;;;3.08;1.50;;;12.00;99.90;;;;;;1892986;75;21101;-83
2023/05/14 04:08:27;;;;;;;2.20;1.50;;;12.10;99.90;;;;;;1892971;75;21184;-83
2023/05/14 04:11:20;;;;;;;3.22;1.45;;;12.00;99.90;;;;;;1887114;75;21095;-83
2023/05/14 04:14:12;;;;;;;3.05;1.70;;;11.90;99.90;;;;;;1892657;75;21091;-83
2023/05/14 04:17:03;;;;;;;2.75;1.80;;;11.90;99.90;;;;;;1893465;75;21090;-84
2023/05/14 04:22:37;;;;;;;2.67;1.45;;;11.90;99.90;;;;;;1957371;72;22204;-84
2023/05/14 04:25:28;;;;;;;5.83;1.80;;;11.90;99.90;;;;;;1884296;75;21179;-84
2023/05/14 04:28:20;;;;;;;4.75;1.92;;;12.00;99.90;;;;;;1905984;75;21116;-84
2023/05/14 04:31:12;;;;;;;3.72;2.12;;;11.90;99.90;;;;;;1884596;75;21102;-84
2023/05/14 04:34:03;;;;;;;4.45;1.70;;;11.90;99.90;;;;;;1917025;75;21153;-84
2023/05/14 04:36:54;;;;;;;1.95;1.62;;;11.90;99.90;;;;;;1896056;75;21043;-84
2023/05/14 04:39:46;;;;;;;4.75;1.62;;;11.90;99.90;;;;;;1887891;75;21098;-84
2023/05/14 04:42:38;;;;;;;1.92;1.57;;;11.90;99.90;;;;;;1906078;75;21098;-84
2023/05/14 04:45:30;;;;;;;2.37;1.45;;;12.00;99.90;;;;;;1903199;75;21047;-83
2023/05/14 04:48:23;;;;;;;4.22;1.70;;;12.10;99.90;;;;;;1906522;74;21114;-83
2023/05/14 04:51:14;;;;;;;3.45;1.85;;;12.10;99.90;;;;;;1906145;75;21588;-83
2023/05/14 04:54:06;;;;;;;1.85;1.55;;;12.10;99.90;;;;;;1887202;75;21327;-83
2023/05/14 04:57:01;;;;;;;2.47;2.05;;;12.10;99.90;;;;;;1896950;75;21103;-84
2023/05/14 04:59:50;;;;;;;3.47;2.15;;;12.10;99.90;;;;;;1884374;76;21051;-84
2023/05/14 05:02:43;;;;;;;4.35;2.20;;;12.10;99.90;;;;;;1884727;75;21182;-83
2023/05/14 05:05:35;;;;;;;3.10;2.10;;;12.10;99.90;;;;;;1888326;75;21110;-83
2023/05/14 05:08:26;;;;;;;3.17;2.02;;;12.10;99.90;;;;;;1895573;75;21658;-83
2023/05/14 05:11:17;;;;;;;5.00;2.75;;;12.20;99.90;;;;;;1899515;75;21121;-83
2023/05/14 05:14:09;;;;;;;4.37;2.75;;;12.20;99.90;;;;;;1884063;75;21099;-83
2023/05/14 05:17:00;;;;;;;4.08;2.45;;;12.20;99.90;;;;;;1884267;75;21144;-83
2023/05/14 05:19:53;;;;;;;5.37;2.62;;;12.20;99.90;;;;;;1907164;75;21557;-83
2023/05/14 05:22:45;;;;;;;3.52;2.85;;;12.20;99.90;;;;;;1905520;74;21622;-84
2023/05/14 05:25:36;;;;;;;4.10;2.90;;;12.20;99.90;;;;;;1906482;74;21111;-84
2023/05/14 05:28:27;;;;;;;5.15;3.50;;;12.20;99.90;;;;;;1904187;74;21098;-84
2023/05/14 05:31:19;;;;;;;3.67;3.10;;;12.10;99.90;;;;;;1921636;74;21102;-83
2023/05/14 05:34:10;;;;;;;3.52;3.22;;;12.20;99.90;;;;;;1910917;74;21154;-83
2023/05/14 05:39:42;;;;;;;3.27;2.85;;;12.20;99.90;;;;;;1952304;72;22295;-83
2023/05/14 05:42:34;;;;;;;2.85;2.50;;;12.30;99.90;;;;;;1905919;75;21091;-82
2023/05/14 05:45:25;;;;;;;2.85;2.20;;;12.30;99.90;;;;;;1901401;75;21119;-85
2023/05/14 05:48:17;;;;;;;4.55;2.17;;;12.30;99.90;;;;;;1917071;75;21099;-84
2023/05/14 05:51:08;;;;;;;2.62;1.87;;;12.30;99.90;;;;;;1894857;75;21373;-83
2023/05/14 05:54:00;;;;;;;4.85;2.00;;;12.40;99.90;;;;;;1892784;75;21091;-83
2023/05/14 05:56:52;;;;;;;2.15;1.45;;;12.60;99.90;;;;;;1903329;75;21099;-84
2023/05/14 05:59:43;;;;;;;2.83;1.90;;;12.60;99.90;;;;;;1903349;75;21171;-83
2023/05/14 06:02:35;;;;;;;1.65;1.30;;;12.70;99.90;;;;;;1892629;75;21132;-83
2023/05/14 06:05:26;;;;;;;4.20;1.35;;;12.80;99.90;;;;;;1899068;75;21612;-85
2023/05/14 06:11:01;;;;;;;3.22;1.60;;;13.00;99.90;;;;;;1975698;72;22158;-83
2023/05/14 06:16:31;;;;;;;3.00;1.90;;;13.20;99.90;;;;;;1957560;72;22174;-83
2023/05/14 06:19:23;;;;;;;1.80;1.70;;;13.20;99.90;;;;;;1898865;75;21212;-83
2023/05/14 06:22:14;;;;;;;1.90;1.70;;;13.20;99.90;;;;;;1907633;75;21110;-83
2023/05/14 06:25:08;;;;;;;2.15;1.90;;;13.30;99.90;;;;;;1905880;75;21173;-84
2023/05/14 06:28:00;;;;;;;2.70;2.50;;;13.40;99.90;;;;;;1883837;76;21269;-84
2023/05/14 06:30:52;;;;;;;2.10;1.90;;;13.30;99.90;;;;;;1886614;75;21084;-83
2023/05/14 06:33:44;;;;;;;2.65;2.20;;;13.40;99.90;;;;;;1884246;76;21566;-83
2023/05/14 06:36:36;;;;;;;2.65;2.40;;;13.40;99.90;;;;;;1884119;75;21039;-83
2023/05/14 06:39:28;;;;;;;2.70;2.20;;;13.50;99.90;;;;;;1906407;75;21105;-83
2023/05/14 06:42:19;;;;;;;3.12;2.15;;;13.60;99.90;;;;;;1902364;75;21099;-84
2023/05/14 06:47:50;;;;;;;4.62;2.17;;;13.90;99.90;;;;;;1944736;72;22223;-83
2023/05/14 06:53:23;;;;;;;6.20;2.50;;;14.30;99.90;;;;;;1975721;72;22676;-83
2023/05/14 06:56:15;;;;;;;3.00;2.58;;;14.40;99.90;;;;;;1907167;73;21088;-84
2023/05/14 06:59:06;;;;;;;2.70;2.27;;;14.50;99.90;;;;;;1904570;75;21059;-84
2023/05/14 07:04:37;;;;;;;2.12;1.87;;;14.70;99.90;;;;;;1941946;72;22150;-84
2023/05/14 07:08:22;;;;;;;2.80;2.47;;;14.90;99.90;;;;;;1883937;75;21109;-83
2023/05/14 07:11:14;;;;;;;3.37;2.42;;;14.90;99.90;;;;;;1823861;78;21169;-84
2023/05/14 07:14:05;;;;;;;3.02;2.58;;;15.00;99.90;;;;;;1884752;75;21609;-84
2023/05/14 07:16:57;;;;;;;4.95;2.80;;;15.10;99.90;;;;;;1908996;75;21565;-84
2023/05/14 07:22:27;;;;;;;4.35;2.52;;;15.30;99.90;;;;;;1958013;72;22661;-84
2023/05/14 07:25:19;;;;;;;2.55;2.35;;;15.40;99.90;;;;;;1895033;75;21115;-83
2023/05/14 07:28:10;;;;;;;2.50;2.30;;;15.50;99.90;;;;;;1894890;75;21128;-83
2023/05/14 07:31:03;;;;;;;4.30;2.65;;;15.50;99.90;;;;;;1897693;75;21133;-86
2023/05/14 07:33:55;;;;;;;4.53;2.87;;;15.70;99.90;;;;;;1898713;75;21519;-84
2023/05/14 07:36:47;;;;;;;3.20;2.30;;;15.90;99.90;;;;;;1885633;75;21118;-85
2023/05/14 07:39:40;;;;;;;3.12;2.47;;;15.80;99.90;;;;;;1886665;75;21099;-84
2023/05/14 07:42:33;;;;;;;2.37;2.17;;;15.70;99.90;;;;;;1886393;75;21125;-84
2023/05/14 07:45:26;;;;;;;3.02;2.20;;;15.60;99.90;;;;;;1886005;75;21074;-84
2023/05/14 07:48:17;;;;;;;2.27;1.47;;;15.60;99.90;;;;;;1903923;75;21122;-84
2023/05/14 07:51:08;;;;;;;1.60;1.50;;;15.30;99.90;;;;;;1905461;75;21635;-84
2023/05/14 07:54:00;;;;;;;2.75;1.42;;;15.20;99.90;;;;;;1907309;75;21595;-83
2023/05/14 07:56:51;;;;;;;4.00;1.57;;;15.10;99.90;;;;;;1899607;75;21059;-84
2023/05/14 07:59:43;;;;;;;2.67;2.08;;;15.10;99.90;;;;;;1884202;76;21204;-84
2023/05/14 08:05:13;;;;;;;2.65;1.85;;;14.80;99.90;;;;;;1975779;72;22196;-83
2023/05/14 08:08:07;;;;;;;2.22;1.45;;;14.90;99.90;;;;;;1905385;74;21171;-83
2023/05/14 08:10:59;;;;;;;2.50;1.98;;;14.90;99.90;;;;;;1904606;75;21099;-83
2023/05/14 08:13:51;;;;;;;2.30;1.60;;;15.00;99.90;;;;;;1911052;74;21100;-84
2023/05/14 08:16:42;;;;;;;2.05;1.85;;;15.00;99.90;;;;;;1913651;74;21871;-83
2023/05/14 08:19:34;;;;;;;2.00;1.80;;;15.10;99.90;;;;;;1904511;75;21078;-84
2023/05/14 08:22:25;;;;;;;2.37;2.17;;;15.20;99.90;;;;;;1904181;75;21124;-83
2023/05/14 08:25:16;;;;;;;2.47;2.27;;;15.30;99.90;;;;;;1903984;75;21578;-83
2023/05/14 08:28:09;;;;;;;4.42;2.10;;;15.30;99.90;;;;;;1904463;75;21082;-83
2023/05/14 08:31:00;;;;;;;2.42;2.22;;;15.30;99.90;;;;;;1904281;75;21125;-83
2023/05/14 08:33:51;;;;;;;2.10;1.90;;;15.30;99.90;;;;;;1904480;75;21051;-83
2023/05/14 08:36:41;;;;;;;3.77;1.60;;;15.40;99.90;;;;;;1904588;75;21069;-83
2023/05/14 08:39:33;;;;;;;2.75;1.90;;;15.30;99.90;;;;;;1904446;74;21192;-83
2023/05/14 08:42:26;;;;;;;1.90;1.70;;;15.40;99.90;;;;;;1903984;75;21137;-83
2023/05/14 08:45:21;;;;;;;2.20;1.75;;;15.40;99.90;;;;;;1918346;74;21115;-84
2023/05/14 08:48:14;;;;;;;1.95;1.80;;;15.50;99.90;;;;;;1914418;74;21119;-83
2023/05/14 08:51:09;;;;;;;2.20;2.00;;;15.40;99.90;;;;;;1910503;74;21119;-85
2023/05/14 08:54:02;;;;;;;2.22;2.02;;;15.30;99.90;;;;;;1914290;74;21088;-83
2023/05/14 08:56:54;;;;;;;2.00;1.90;;;15.10;99.90;;;;;;1904438;75;21135;-83
2023/05/14 08:59:46;;;;;;;2.70;2.10;;;15.10;99.90;;;;;;1904245;75;21153;-83
2023/05/14 09:02:39;;;;;;;2.47;1.75;;;15.10;99.90;;;;;;1913188;74;21194;-84
2023/05/14 09:05:32;;;;;;;2.62;1.95;;;15.00;99.90;;;;;;1919924;74;21078;-84
2023/05/14 09:08:23;;;;;;;2.10;1.90;;;15.10;99.90;;;;;;1922824;74;21103;-83
2023/05/14 09:11:14;;;;;;;1.82;1.67;;;15.30;99.90;;;;;;1926231;74;21058;-83
2023/05/14 09:14:08;;;;;;;2.60;1.70;;;15.30;99.90;;;;;;1921829;74;21094;-83
2023/05/14 09:16:59;;;;;;;2.20;2.00;;;15.40;99.90;;;;;;1915095;74;21102;-83
2023/05/14 09:19:51;;;;;;;2.60;2.40;;;15.30;99.90;;;;;;1906114;75;21095;-82
2023/05/14 09:22:43;;;;;;;2.30;2.10;;;15.40;99.90;;;;;;1906590;75;21583;-82
2023/05/14 09:25:35;;;;;;;2.83;2.10;;;15.50;99.90;;;;;;1907065;75;21165;-83
2023/05/14 09:28:27;;;;;;;2.95;1.98;;;15.40;99.90;;;;;;1907915;75;21106;-83
2023/05/14 09:31:18;;;;;;;2.12;1.70;;;15.50;99.90;;;;;;1907613;75;21162;-83
2023/05/14 09:34:09;;;;;;;2.12;1.90;;;15.50;99.90;;;;;;1907124;75;21105;-83
2023/05/14 09:37:03;;;;;;;1.82;1.72;;;15.50;99.90;;;;;;1908562;74;21060;-83
2023/05/14 09:39:54;;;;;;;1.90;1.80;;;15.60;99.90;;;;;;1910538;74;21701;-84
2023/05/14 09:42:47;;;;;;;1.92;1.77;;;15.80;99.90;;;;;;1908230;75;21071;-83
2023/05/14 09:45:38;;;;;;;2.95;1.82;;;15.90;99.90;;;;;;1907760;75;21203;-83
2023/05/14 09:48:30;;;;;;;2.75;1.80;;;15.80;99.90;;;;;;1925927;74;21164;-83
2023/05/14 09:51:24;;;;;;;3.02;2.67;;;16.00;99.90;;;;;;1908914;74;21059;-83
2023/05/14 09:54:15;;;;;;;2.77;2.05;;;16.10;99.90;;;;;;1906989;75;21110;-83
2023/05/14 09:57:07;;;;;;;2.42;2.00;;;16.30;99.90;;;;;;1906773;75;21187;-83
2023/05/14 09:59:58;;;;;;;3.85;2.35;;;16.50;99.90;;;;;;1909754;74;21092;-83
2023/05/14 10:02:52;;;;;;;2.85;2.58;;;16.70;99.90;;;;;;1920666;74;21189;-83
2023/05/14 10:05:44;;;;;;;1.98;1.82;;;16.80;99.90;;;;;;1922017;73;21626;-83
2023/05/14 10:08:36;;;;;;;2.60;2.17;;;16.60;99.90;;;;;;1923027;73;21109;-83
2023/05/14 10:11:30;;;;;;;1.98;1.72;;;16.70;99.90;;;;;;1903958;75;21085;-83
2023/05/14 10:14:25;;;;;;;3.45;1.87;;;16.90;99.90;;;;;;1904016;75;21583;-83
2023/05/14 10:17:19;;;;;;;2.05;1.85;;;17.10;99.90;;;;;;1903857;75;21099;-83
2023/05/14 10:22:53;;;;;;;3.33;1.70;;;17.30;99.90;;;;;;1957510;72;22610;-83
2023/05/14 10:25:45;;;;;;;3.45;1.62;;;17.20;99.90;;;;;;1897605;75;21110;-85
2023/05/14 10:28:38;;;;;;;2.47;1.50;;;17.00;99.90;;;;;;1908412;75;21164;-85
2023/05/14 10:31:48;;;;;;;2.22;1.60;;;17.20;99.90;;;;;;1906218;75;21147;-85
2023/05/14 10:34:42;;;;;;;1.70;1.60;;;17.00;99.90;;;;;;1906734;75;21157;-83
2023/05/14 10:37:34;;;;;;;1.42;1.10;;;17.20;99.90;;;;;;1867462;76;21114;-83
2023/05/14 10:40:26;;;;;;;1.10;1.00;;;17.30;99.90;;;;;;1902869;75;21091;-84
2023/05/14 10:43:19;;;;;;;1.42;1.02;;;16.90;99.90;;;;;;1869875;76;21110;-83
2023/05/14 10:46:13;;;;;;;1.55;1.20;;;16.90;99.90;;;;;;1906325;75;21102;-84
2023/05/14 10:49:05;;;;;;;0.80;0.80;;;16.70;99.90;;;;;;1905458;75;21110;-83
2023/05/14 10:51:57;;;;;;;1.20;1.10;;;16.50;99.90;;;;;;1893116;75;21167;-84
2023/05/14 10:54:53;;;;;;;1.22;1.12;;;16.20;99.90;;;;;;1907510;75;21684;-83
2023/05/14 10:57:46;;;;;;;1.15;1.05;;;15.90;99.90;;;;;;1894914;75;21160;-83
2023/05/14 11:00:38;;;;;;;1.40;1.17;;;15.60;99.90;;;;;;1892579;75;21362;-83
2023/05/14 11:03:31;;;;;;;1.20;0.98;;;15.70;99.90;;;;;;1882269;75;21109;-83
2023/05/14 11:06:23;;;;;;;1.10;0.90;;;16.00;99.90;;;;;;1884313;76;21570;-83
2023/05/14 11:09:17;;;;;;;0.90;0.70;;;16.10;99.90;;;;;;1893427;75;21554;-83
2023/05/14 11:12:11;;;;;;;0.80;0.80;;;16.30;99.90;;;;;;1894760;75;21087;-83
2023/05/14 11:15:08;;;;;;;0.70;0.70;;;16.40;99.90;;;;;;1894446;75;21102;-84
2023/05/14 11:17:59;;;;;;;0.70;0.70;;;16.30;99.90;;;;;;1897790;75;21224;-83
2023/05/14 11:20:52;;;;;;;0.70;0.70;;;16.40;99.90;;;;;;1861813;76;21597;-83
2023/05/14 11:23:44;;;;;;;1.02;0.80;;;16.30;99.90;;;;;;1917953;74;21216;-85
2023/05/14 11:26:35;;;;;;;1.32;0.60;;;16.20;99.90;;;;;;1879211;76;21109;-83
2023/05/14 11:29:27;;;;;;;0.60;0.45;;;16.20;99.90;;;;;;1921206;74;21109;-83
2023/05/14 11:32:19;;;;;;;1.15;0.90;;;16.20;99.90;;;;;;1840737;76;21108;-83
2023/05/14 11:35:11;;;;;;;0.70;0.70;;;16.20;99.90;;;;;;1898935;74;21200;-83
2023/05/14 11:38:03;;;;;;;1.30;1.10;;;16.30;99.90;;;;;;1829594;77;21119;-83
2023/05/14 11:40:58;;;;;;;0.88;0.88;;;16.40;99.90;;;;;;1918330;74;21097;-84
2023/05/14 11:43:50;;;;;;;3.30;1.10;;;16.20;99.90;;;;;;1847911;77;21149;-84
2023/05/14 11:46:43;;;;;;;1.62;1.10;;;16.40;99.90;;;;;;1909971;74;21083;-84
2023/05/14 11:49:36;;;;;;;0.93;0.80;;;16.40;99.90;;;;;;1846896;77;21232;-84
2023/05/14 11:52:28;;;;;;;1.30;1.20;;;16.40;99.90;;;;;;1920699;74;21188;-84
2023/05/14 11:55:19;;;;;;;1.25;1.15;;;16.30;99.90;;;;;;1825781;77;21427;-84
2023/05/14 11:58:11;;;;;;;1.40;1.30;;;16.40;99.90;;;;;;1909501;74;21109;-84
2023/05/14 12:01:02;;;;;;;1.22;1.12;;;16.50;99.90;;;;;;1851801;77;21116;-83
2023/05/14 12:03:54;;;;;;;1.30;1.20;;;16.50;99.90;;;;;;1912356;74;21130;-83
2023/05/14 12:06:46;;;;;;;1.40;1.30;;;16.50;99.90;;;;;;1843835;77;21272;-83
2023/05/14 12:09:39;;;;;;;1.52;1.20;;;16.60;99.90;;;;;;1868781;76;21562;-83
2023/05/14 12:12:35;;;;;;;1.00;0.90;;;16.40;99.90;;;;;;1909649;74;21062;-84
2023/05/14 12:15:28;;;;;;;1.50;1.20;;;16.40;99.90;;;;;;1841873;77;21196;-83
2023/05/14 12:18:19;;;;;;;1.20;1.10;;;16.40;99.90;;;;;;1921164;74;22053;-84
2023/05/14 12:21:13;;;;;;;2.50;1.40;;;16.50;99.90;;;;;;1853245;77;21172;-83
2023/05/14 12:24:04;;;;;;;1.70;1.47;;;16.40;99.90;;;;;;1910210;74;21204;-83
2023/05/14 12:27:02;;;;;;;2.02;1.25;;;16.50;99.90;;;;;;1893784;75;21584;-85
2023/05/14 12:30:02;;;;;;;3.05;1.80;;;16.40;99.90;;;;;;1907084;75;21574;-84
2023/05/14 12:32:58;;;;;;;1.50;1.40;;;16.50;99.90;;;;;;1903325;75;21107;-84
2023/05/14 12:36:01;;;;;;;1.90;1.70;;;16.60;99.90;;;;;;1872663;75;21165;-84
2023/05/14 12:38:59;;;;;;;1.40;1.30;;;16.60;99.90;;;;;;1899830;75;21158;-84
2023/05/14 12:41:51;;;;;;;1.50;1.40;;;16.40;99.90;;;;;;1895309;75;21125;-84
2023/05/14 12:44:45;;;;;;;1.90;1.70;;;16.20;99.90;;;;;;1901838;75;21105;-84
2023/05/14 12:47:39;;;;;;;3.25;1.50;;;16.20;99.90;;;;;;1905426;75;21115;-83
2023/05/14 12:50:33;;;;;;;1.85;1.30;;;16.30;99.90;;;;;;1848138;77;21074;-84
2023/05/14 12:53:29;;;;;;;1.62;0.90;;;16.20;99.90;;;;;;1831999;77;21394;-84
2023/05/14 12:56:27;;;;;;;1.75;1.50;;;16.20;99.90;;;;;;1832337;77;21107;-84
2023/05/14 12:59:19;;;;;;;1.77;1.25;;;16.00;99.90;;;;;;1883476;75;21102;-83
2023/05/14 13:02:14;;;;;;;1.40;1.30;;;16.00;99.90;;;;;;1883104;75;21090;-83
2023/05/14 13:05:10;;;;;;;1.30;1.20;;;16.00;99.90;;;;;;1907294;75;21161;-84
2023/05/14 13:08:03;;;;;;;1.25;1.15;;;16.00;99.90;;;;;;1897941;75;21091;-84
2023/05/14 13:13:38;;;;;;;1.20;0.93;;;16.20;99.90;;;;;;1944344;72;22617;-83
2023/05/14 13:19:10;;;;;;;1.87;0.90;;;16.20;99.90;;;;;;1942771;72;22272;-82
2023/05/14 13:22:02;;;;;;;1.00;1.00;;;16.20;99.90;;;;;;1883595;75;21105;-82
2023/05/14 13:24:54;;;;;;;1.10;1.00;;;16.20;99.90;;;;;;1906008;75;21098;-83
2023/05/14 13:27:45;;;;;;;0.95;0.95;;;16.30;99.90;;;;;;1905089;75;21216;-84
2023/05/14 13:33:16;;;;;;;0.72;0.62;;;16.30;99.90;;;;;;1925942;72;22148;-85
2023/05/14 13:36:09;;;;;;;0.80;0.80;;;16.20;99.90;;;;;;1857752;77;21176;-84
2023/05/14 13:39:01;;;;;;;0.90;0.90;;;16.00;99.90;;;;;;1878178;75;21168;-83
2023/05/14 13:41:52;;;;;;;0.90;0.70;;;16.10;99.90;;;;;;1883072;75;21125;-82
2023/05/14 13:44:43;;;;;;;0.90;0.90;;;16.10;99.90;;;;;;1874871;75;21092;-83
2023/05/14 13:47:35;;;;;;;1.00;0.90;;;16.20;99.90;;;;;;1877969;75;21616;-84
2023/05/14 13:50:26;;;;;;;0.98;0.98;;;16.40;99.90;;;;;;1902934;75;21523;-83
2023/05/14 13:53:18;;;;;;;1.00;0.90;;;16.70;99.90;;;;;;1873718;75;21614;-83
2023/05/14 13:56:09;;;;;;;1.15;1.05;;;16.70;99.90;;;;;;1896981;75;21283;-83
2023/05/14 13:59:01;;;;;;;0.90;0.90;;;16.70;99.90;;;;;;1881086;75;21196;-84
2023/05/14 14:01:52;;;;;;;1.10;1.00;;;16.90;99.90;;;;;;1838130;76;21118;-83
2023/05/14 14:04:44;;;;;;;0.70;0.70;;;17.20;99.90;;;;;;1886741;75;21171;-83
2023/05/14 14:07:35;;;;;;;0.90;0.80;;;17.40;99.90;;;;;;1873608;75;21163;-83
2023/05/14 14:10:26;;;;;;;1.17;1.07;;;17.70;99.90;;;;;;1900598;75;21090;-84
2023/05/14 14:13:20;;;;;;;0.78;0.62;;;17.70;99.90;;;;;;1849241;77;21118;-84
2023/05/14 14:16:11;;;;;;;1.00;0.72;;;17.20;99.90;;;;;;1836980;78;21082;-84
2023/05/14 14:19:03;;;;;;;1.25;0.80;;;16.90;99.90;;;;;;1882924;75;21098;-83
2023/05/14 14:21:54;;;;;;;1.65;1.20;;;16.70;99.90;;;;;;1892573;75;21086;-83
2023/05/14 14:24:45;;;;;;;1.65;0.90;;;16.50;99.90;;;;;;1874829;75;21107;-83
2023/05/14 14:27:37;;;;;;;1.30;1.20;;;16.60;99.90;;;;;;1851014;77;21575;-84
2023/05/14 14:30:28;;;;;;;1.87;1.30;;;16.40;99.90;;;;;;1883952;75;21069;-84
2023/05/14 14:33:20;;;;;;;1.15;1.05;;;16.20;99.90;;;;;;1888918;75;21583;-83
2023/05/14 14:36:11;;;;;;;1.32;1.05;;;16.00;99.90;;;;;;1870291;75;21177;-83
2023/05/14 14:39:03;;;;;;;1.80;1.10;;;15.60;99.90;;;;;;1869962;75;21201;-83
2023/05/14 14:41:54;;;;;;;1.52;1.25;;;15.30;99.90;;;;;;1881865;75;21112;-83
2023/05/14 14:44:46;;;;;;;1.20;0.90;;;15.20;99.90;;;;;;1879422;75;21122;-82
2023/05/14 14:47:37;;;;;;;1.70;0.78;;;15.10;99.90;;;;;;1878981;75;21640;-83
2023/05/14 14:50:29;;;;;;;1.32;0.95;;;15.00;99.90;;;;;;1859883;76;21205;-83
2023/05/14 14:53:20;;;;;;;1.42;0.90;;;15.00;99.90;;;;;;1893069;75;21109;-83
2023/05/14 14:56:12;;;;;;;1.30;1.07;;;15.10;99.90;;;;;;1885573;75;21197;-82
2023/05/14 14:59:03;;;;;;;1.42;1.10;;;15.10;99.90;;;;;;1867862;76;21740;-86
2023/05/14 15:04:35;;;;;;;1.12;0.80;;;15.10;99.90;;;;;;1957440;72;23326;-84
2023/05/14 15:07:26;;;;;;;1.25;0.90;;;15.10;99.90;;;;;;1915216;75;21074;-84
2023/05/14 15:10:18;;;;;;;1.10;1.00;;;15.20;99.90;;;;;;1912607;75;21180;-84
2023/05/14 15:13:10;;;;;;;0.62;0.62;;;15.30;99.90;;;;;;1902579;75;21553;-83
2023/05/14 15:16:12;;;;;;;1.07;0.90;;;15.50;99.90;;;;;;1899044;75;21627;-83
2023/05/14 15:19:03;;;;;;;1.07;0.93;;;15.80;99.90;;;;;;1906254;75;21117;-83
2023/05/14 15:21:55;;;;;;;0.60;0.60;;;16.20;99.90;;;;;;1889553;75;21136;-83
2023/05/14 15:24:46;;;;;;;1.67;0.98;;;17.00;99.90;;;;;;1913947;75;21152;-83
2023/05/14 15:27:38;;;;;;;0.98;0.80;;;17.20;99.90;;;;;;1883769;75;21561;-83
2023/05/14 15:30:30;;;;;;;1.05;0.80;;;17.40;99.90;;;;;;1885163;75;21102;-83
2023/05/14 15:33:22;;;;;;;1.07;0.93;;;18.70;99.90;;;;;;1905951;75;21131;-84
2023/05/14 15:36:13;;;;;;;2.22;1.00;;;21.50;99.90;;;;;;1885238;75;21110;-84
2023/05/14 15:39:05;;;;;;;0.80;0.80;;;22.50;99.90;;;;;;1884604;75;21094;-84
2023/05/14 15:41:57;;;;;;;0.70;0.70;;;22.30;99.90;;;;;;1898539;73;21078;-84